Terminal Aerodrome Forecast
Issued by NWS Charleston, WV

Current Version | Previous Version | Graphics & Text | Print | Product List | Glossary On
Versions: 1 2 3 4 5 6 7 8 9 10 11 12 13 14 15 16 17 18 19 20 21 22 23 24 25
000
FTUS41 KRLX 261507 AAA
TAFBKW
TAF AMD
KBKW 261507Z 2615/2712 30012G20KT P6SM SCT021 SCT035 BKN045
     FM261600 28012G20KT P6SM SCT030
     FM262000 28012G20KT P6SM SCT150
     FM262300 28008KT P6SM SCT200
     FM270300 24007KT P6SM SCT150
     FM270800 22007KT P6SM BKN060=

USA.gov is the U.S. government's official web portal to all federal, state and local government web resources and services.